createdAt,value
2018-11-26T00:01:48.110Z,4.58
2018-11-26T00:06:50.783Z,4.54
2018-11-26T00:11:53.398Z,4.52
2018-11-26T00:16:55.974Z,4.45
2018-11-26T00:21:58.591Z,4.40
2018-11-26T00:27:01.183Z,4.35
2018-11-26T00:32:06.786Z,4.31
2018-11-26T00:37:09.358Z,4.25
2018-11-26T00:42:11.994Z,4.17
2018-11-26T00:47:14.543Z,4.08
2018-11-26T00:52:17.107Z,4.02
2018-11-26T00:57:19.701Z,3.96
2018-11-26T01:02:22.311Z,3.91
2018-11-26T01:07:24.903Z,3.84
2018-11-26T01:12:27.494Z,3.75
2018-11-26T01:17:30.080Z,3.67
2018-11-26T01:22:32.678Z,3.63
2018-11-26T01:27:35.240Z,3.58
2018-11-26T01:32:37.879Z,3.54
2018-11-26T01:37:40.526Z,3.47
2018-11-26T01:42:43.195Z,3.42
2018-11-26T01:47:45.751Z,3.38
2018-11-26T01:52:48.344Z,3.35
2018-11-26T01:57:51.063Z,3.26
2018-11-26T02:02:53.943Z,3.22
2018-11-26T02:07:56.591Z,3.20
2018-11-26T02:12:59.202Z,3.16
2018-11-26T02:18:01.790Z,3.09
2018-11-26T02:23:04.449Z,3.01
2018-11-26T02:28:07.014Z,2.95
2018-11-26T02:33:09.653Z,2.97
2018-11-26T02:38:12.208Z,3.01
2018-11-26T02:43:14.811Z,3.01
2018-11-26T02:48:17.400Z,3.06
2018-11-26T02:53:19.998Z,3.11
2018-11-26T02:58:22.587Z,3.15
2018-11-26T03:03:25.215Z,3.18
2018-11-26T03:08:27.838Z,3.22
2018-11-26T03:13:30.429Z,3.25
2018-11-26T03:18:33.038Z,3.25
2018-11-26T03:23:35.673Z,3.26
2018-11-26T03:28:38.246Z,3.30
2018-11-26T03:33:40.845Z,3.35
2018-11-26T03:38:51.622Z,3.32
2018-11-26T03:43:54.272Z,3.31
2018-11-26T03:48:56.829Z,3.30
2018-11-26T03:53:59.425Z,3.32
2018-11-26T03:59:02.010Z,3.27
2018-11-26T04:04:04.618Z,3.23
2018-11-26T04:09:07.751Z,3.20
2018-11-26T04:14:10.388Z,3.17
2018-11-26T04:19:12.986Z,3.15
2018-11-26T04:24:15.562Z,3.15
2018-11-26T04:29:18.150Z,3.16
2018-11-26T04:34:20.767Z,3.17
2018-11-26T04:39:23.373Z,3.15
2018-11-26T04:44:25.987Z,3.11
2018-11-26T04:49:28.692Z,3.06
2018-11-26T04:54:31.344Z,3.05
2018-11-26T04:59:33.922Z,3.05
2018-11-26T05:04:36.542Z,3.01
2018-11-26T05:09:39.347Z,3.03
2018-11-26T05:14:41.934Z,3.05
2018-11-26T05:19:44.531Z,3.06
2018-11-26T05:24:47.182Z,3.07
2018-11-26T05:29:49.837Z,3.08
2018-11-26T05:34:52.505Z,3.11
2018-11-26T05:39:55.057Z,3.14
2018-11-26T05:44:57.620Z,3.19
2018-11-26T05:50:00.430Z,3.20
2018-11-26T05:55:03.302Z,3.23
2018-11-26T06:00:13.793Z,3.24
2018-11-26T06:05:16.726Z,3.27
2018-11-26T06:10:19.510Z,3.29
2018-11-26T06:15:22.328Z,3.31
2018-11-26T06:20:25.099Z,3.34
2018-11-26T06:25:27.788Z,3.35
2018-11-26T06:30:30.444Z,3.34
2018-11-26T06:35:33.066Z,3.36
2018-11-26T06:40:35.839Z,3.37
2018-11-26T06:45:38.478Z,3.37
2018-11-26T06:50:41.118Z,3.36
2018-11-26T06:55:43.743Z,3.38
2018-11-26T07:00:46.342Z,3.42
2018-11-26T07:05:49.229Z,3.43
2018-11-26T07:10:51.838Z,3.45
2018-11-26T07:15:54.513Z,3.48
2018-11-26T07:20:57.167Z,3.53
2018-11-26T07:26:00.490Z,3.56
2018-11-26T07:31:03.179Z,3.59
2018-11-26T07:36:11.160Z,3.60
2018-11-26T07:41:08.470Z,3.59
2018-11-26T07:46:11.100Z,3.62
2018-11-26T07:51:14.027Z,3.64
2018-11-26T07:56:16.654Z,3.67
2018-11-26T08:01:19.286Z,3.70
2018-11-26T08:06:22.157Z,3.76
2018-11-26T08:11:24.796Z,3.77
2018-11-26T08:16:27.526Z,3.78
2018-11-26T08:21:30.214Z,3.83
2018-11-26T08:26:32.914Z,3.87
2018-11-26T08:31:35.679Z,3.91
2018-11-26T08:36:43.608Z,3.92
2018-11-26T08:41:52.951Z,3.92
2018-11-26T08:46:55.707Z,3.92
2018-11-26T08:51:58.303Z,3.94
2018-11-26T08:57:01.139Z,3.99
2018-11-26T09:02:08.250Z,4.00
2018-11-26T09:07:10.960Z,4.04
2018-11-26T09:12:13.583Z,4.08
2018-11-26T09:17:16.223Z,4.13
2018-11-26T09:22:19.050Z,4.19
2018-11-26T09:27:21.756Z,4.23
2018-11-26T09:32:24.379Z,4.27
2018-11-26T09:37:27.144Z,4.29
2018-11-26T09:42:29.760Z,4.29
2018-11-26T09:47:32.364Z,4.30
2018-11-26T09:52:35.039Z,4.33
2018-11-26T09:57:37.816Z,4.40
2018-11-26T10:02:41.878Z,4.45
2018-11-26T10:07:44.663Z,4.49
2018-11-26T10:12:47.333Z,4.59
2018-11-26T10:17:50.247Z,4.71
2018-11-26T10:22:53.390Z,4.83
2018-11-26T10:27:56.020Z,4.84
2018-11-26T10:32:58.823Z,4.85
2018-11-26T10:38:01.460Z,4.87
2018-11-26T10:43:04.386Z,4.87
2018-11-26T10:48:07.169Z,4.89
2018-11-26T10:53:09.948Z,4.93
2018-11-26T10:58:12.669Z,4.95
2018-11-26T11:03:15.367Z,4.99
2018-11-26T11:08:18.022Z,4.99
2018-11-26T11:13:20.726Z,5.02
2018-11-26T11:18:23.330Z,5.02
2018-11-26T11:23:26.060Z,5.07
2018-11-26T11:28:28.736Z,5.12
2018-11-26T11:33:31.358Z,5.12
2018-11-26T11:38:34.195Z,5.08
2018-11-26T11:43:36.981Z,5.07
2018-11-26T11:48:39.583Z,5.09
2018-11-26T11:53:42.507Z,5.10
2018-11-26T11:58:45.130Z,5.12
2018-11-26T12:03:47.755Z,5.15
2018-11-26T12:08:50.393Z,5.15
2018-11-26T12:13:53.057Z,5.19
2018-11-26T12:18:55.652Z,5.19
2018-11-26T12:23:58.343Z,5.22
2018-11-26T12:29:00.998Z,5.23
2018-11-26T12:34:03.993Z,5.22
2018-11-26T12:39:08.611Z,5.23
2018-11-26T12:44:11.232Z,5.24
2018-11-26T12:49:13.955Z,5.25
2018-11-26T12:54:16.632Z,5.26
2018-11-26T12:59:19.283Z,5.23
2018-11-26T13:04:22.171Z,5.26
2018-11-26T13:09:24.729Z,5.25
2018-11-26T13:14:27.431Z,5.24
2018-11-26T13:19:30.216Z,5.21
2018-11-26T13:24:32.836Z,5.21
2018-11-26T13:29:35.460Z,5.18
2018-11-26T13:34:38.373Z,5.17
2018-11-26T13:39:40.829Z,5.14
2018-11-26T13:44:43.395Z,5.15
2018-11-26T13:49:46.335Z,5.17
2018-11-26T13:54:48.789Z,5.14
2018-11-26T13:59:51.409Z,5.11
2018-11-26T14:04:54.017Z,5.06
2018-11-26T14:09:56.696Z,5.07
2018-11-26T14:14:59.360Z,5.06
2018-11-26T14:20:02.067Z,5.07
2018-11-26T14:25:06.451Z,5.06
2018-11-26T14:30:15.033Z,5.06
2018-11-26T14:35:17.697Z,5.06
2018-11-26T14:40:23.651Z,5.05
2018-11-26T14:45:26.320Z,5.05
2018-11-26T14:50:29.028Z,5.05
2018-11-26T14:55:35.431Z,5.03
2018-11-26T15:00:38.181Z,5.02
2018-11-26T15:05:40.800Z,5.00
2018-11-26T15:10:43.433Z,5.00
2018-11-26T15:15:46.065Z,5.02
2018-11-26T15:20:48.766Z,5.00
2018-11-26T15:25:51.438Z,4.99
2018-11-26T15:30:54.092Z,4.99
2018-11-26T15:35:56.689Z,4.97
2018-11-26T15:40:59.410Z,4.98
2018-11-26T15:46:02.030Z,4.98
2018-11-26T15:51:05.224Z,4.99
2018-11-26T15:56:07.954Z,4.98
2018-11-26T16:01:10.560Z,4.97
2018-11-26T16:06:13.217Z,4.95
2018-11-26T16:11:15.821Z,4.90
2018-11-26T16:16:18.424Z,4.89
2018-11-26T16:21:21.044Z,4.86
2018-11-26T16:26:23.693Z,4.84
2018-11-26T16:31:26.389Z,4.82
2018-11-26T16:36:29.071Z,4.81
2018-11-26T16:41:31.677Z,4.75
2018-11-26T16:46:34.234Z,4.72
2018-11-26T16:51:36.900Z,4.69
2018-11-26T16:56:40.030Z,4.66
2018-11-26T17:01:42.835Z,4.66
2018-11-26T17:06:45.592Z,4.64
2018-11-26T17:11:48.404Z,4.62
2018-11-26T17:16:51.076Z,4.62
2018-11-26T17:21:53.944Z,4.56
2018-11-26T17:26:56.669Z,4.57
2018-11-26T17:32:00.004Z,4.59
2018-11-26T17:37:02.733Z,4.59
2018-11-26T17:42:05.961Z,4.59
2018-11-26T17:47:08.661Z,4.65
2018-11-26T17:52:11.389Z,4.65
2018-11-26T17:57:14.052Z,4.65
2018-11-26T18:02:16.727Z,4.63
2018-11-26T18:07:19.647Z,4.63
2018-11-26T18:12:22.215Z,4.65
2018-11-26T18:17:24.839Z,4.65
2018-11-26T18:22:27.477Z,4.67
2018-11-26T18:27:30.132Z,4.67
2018-11-26T18:32:32.696Z,4.66
2018-11-26T18:37:35.430Z,4.61
2018-11-26T18:42:38.027Z,4.59
2018-11-26T18:47:40.640Z,4.58
2018-11-26T18:52:44.020Z,4.60
2018-11-26T18:57:46.797Z,4.63
2018-11-26T19:02:50.230Z,4.65
2018-11-26T19:07:52.754Z,4.66
2018-11-26T19:12:59.923Z,4.67
2018-11-26T19:18:25.776Z,4.65
2018-11-26T19:23:28.372Z,4.65
2018-11-26T19:28:31.069Z,4.64
2018-11-26T19:33:33.983Z,4.65
2018-11-26T19:38:36.731Z,4.62
2018-11-26T19:43:39.340Z,4.61
2018-11-26T19:48:42.022Z,4.59
2018-11-26T19:53:44.580Z,4.59
2018-11-26T19:58:47.153Z,4.57
2018-11-26T20:03:58.707Z,4.53
2018-11-26T20:09:01.355Z,4.46
2018-11-26T20:14:04.889Z,4.42
2018-11-26T20:19:07.471Z,4.39
2018-11-26T20:24:10.070Z,4.34
2018-11-26T20:29:12.693Z,4.28
2018-11-26T20:34:15.269Z,4.23
2018-11-26T20:39:17.884Z,4.16
2018-11-26T20:44:20.553Z,4.11
2018-11-26T20:49:23.217Z,4.03
2018-11-26T20:54:25.932Z,3.97
2018-11-26T20:59:28.585Z,3.90
2018-11-26T21:04:31.212Z,3.86
2018-11-26T21:09:33.944Z,3.80
2018-11-26T21:14:36.627Z,3.72
2018-11-26T21:19:39.224Z,3.64
2018-11-26T21:24:41.851Z,3.56
2018-11-26T21:29:44.446Z,3.48
2018-11-26T21:34:47.046Z,3.40
2018-11-26T21:39:53.114Z,3.33
2018-11-26T21:44:55.973Z,3.28
2018-11-26T21:49:58.614Z,3.22
2018-11-26T21:55:01.229Z,3.14
2018-11-26T22:00:25.507Z,3.08
2018-11-26T22:05:29.064Z,3.03
2018-11-26T22:10:31.722Z,2.97
2018-11-26T22:15:34.433Z,2.92
2018-11-26T22:20:37.036Z,2.90
2018-11-26T22:25:39.645Z,2.85
2018-11-26T22:30:42.292Z,2.77
2018-11-26T22:35:44.948Z,2.71
2018-11-26T22:40:47.623Z,2.62
2018-11-26T22:45:50.420Z,2.55
2018-11-26T22:50:53.072Z,2.49
2018-11-26T22:55:55.695Z,2.41
2018-11-26T23:00:58.287Z,2.33
2018-11-26T23:06:00.886Z,2.31
2018-11-26T23:11:03.430Z,2.27
2018-11-26T23:16:06.804Z,2.19
2018-11-26T23:21:09.425Z,2.11
2018-11-26T23:26:12.041Z,2.03
2018-11-26T23:31:14.937Z,1.99
2018-11-26T23:36:17.633Z,1.95
2018-11-26T23:41:20.228Z,1.89
2018-11-26T23:46:22.913Z,1.83
2018-11-26T23:51:25.720Z,1.80
2018-11-26T23:56:28.398Z,1.75
